»·PEaware :: TWY250 KBGR-KBOS

TWY250 :: KBGR-KBOS

FLIGHT INFORMATION

Flight Status: Arrived
Operator: Unknown
More flights by this operator :: More flights under this callsign
Pilot: Anonymous 13363 (13363)
Aircraft: BOMBARDIER BD-100 CHALLENGER 300
(CL30)
More flights by this aircraft type
Origin: KBGR Bangor Intl
United States
Destination: KBOS Logan Intl
United States
More flights between these airports :: More routes between these airports
Route: AJJAY OOSHN5
File this flight plan on PilotEdge
Remarks: PBN / D1 NAV / RNVD1E2A1 DOF / 180209 REG / N350SB CODE / WDL5BC OPR / TWY PER / D RMK / TCAS SIMBRIEF
Altitude:
(Current/Filed)
24,000ft
Speed:
(Current/Filed)
474kts
Departed: 08-Feb-18 07:30 PM
Arrived: 08-Feb-18 08:08 PM
Distance/Time
Traveled:
174nm/0:38
Distance/Time
To Go:
Arrived

Flight Plot

Page will automatically refresh every two minutes.

Flight plan parsing failed; only flown route is shown


Map Options




Map Legend


Flown Route
Filed Route
Departure Airport
Arrival Airport
Navaid (VOR, NDB)
Fix

Horizontal Profiles

Position Reports

Time Latitude Longitude Heading Altitude Ground
Speed
08-Feb-18 19:35 44.810999 -68.833389 313 1891ft 170kts
08-Feb-18 19:36 44.788839 -68.890162 191 5880ft 276kts
08-Feb-18 19:37 44.711889 -68.922995 207 10242ft 317kts
08-Feb-18 19:38 44.637316 -68.968174 215 15867ft 278kts
08-Feb-18 19:39 44.567519 -69.015298 217 18755ft 285kts
08-Feb-18 19:40 44.496112 -69.065123 217 21292ft 291kts
08-Feb-18 19:41 44.423543 -69.116246 217 23532ft 298kts
08-Feb-18 19:42 44.346511 -69.170737 216 24376ft 338kts
08-Feb-18 19:43 44.256613 -69.234083 215 24372ft 384kts
08-Feb-18 19:44 44.161756 -69.300553 215 24363ft 381kts
08-Feb-18 19:45 44.068112 -69.366031 215 24362ft 374kts
08-Feb-18 19:46 43.976583 -69.429880 216 24360ft 367kts
08-Feb-18 19:47 43.886504 -69.492502 216 24365ft 362kts
08-Feb-18 19:48 43.797218 -69.554358 216 24364ft 360kts
08-Feb-18 19:49 43.705682 -69.610821 209 24365ft 366kts
08-Feb-18 19:50 43.618366 -69.651346 208 24363ft 365kts
08-Feb-18 19:51 43.531286 -69.690940 208 24378ft 366kts
08-Feb-18 19:52 43.434769 -69.734424 208 24377ft 367kts
08-Feb-18 19:53 43.338082 -69.777773 208 24375ft 368kts
08-Feb-18 19:54 43.241225 -69.821027 208 24374ft 368kts
08-Feb-18 19:55 43.144306 -69.864158 208 24372ft 368kts
08-Feb-18 19:56 43.047283 -69.907189 208 24370ft 368kts
08-Feb-18 19:57 42.950367 -69.950064 208 24369ft 368kts
08-Feb-18 19:58 42.863908 -69.988217 207 24376ft 367kts
08-Feb-18 19:59 42.767521 -70.030615 208 24374ft 367kts
08-Feb-18 20:00 42.673613 -70.078688 220 24004ft 346kts
08-Feb-18 20:01 42.624753 -70.182620 255 21883ft 325kts
08-Feb-18 20:02 42.595354 -70.290677 227 19807ft 329kts
08-Feb-18 20:03 42.558279 -70.393413 227 17474ft 320kts
08-Feb-18 20:04 42.490042 -70.470224 226 14243ft 318kts
08-Feb-18 20:05 42.423686 -70.546408 226 10245ft 315kts
08-Feb-18 20:06 42.359689 -70.626260 226 5513ft 325kts
08-Feb-18 20:08 42.304377 -70.709296 251 3397ft 249kts
08-Feb-18 20:09 42.293996 -70.780128 258 3399ft 158kts
08-Feb-18 20:10 42.280383 -70.833559 252 2986ft 178kts
08-Feb-18 20:11 42.278636 -70.894728 318 2421ft 155kts
08-Feb-18 20:12 42.310584 -70.932332 311 1768ft 148kts
08-Feb-18 20:13 42.337203 -70.967980 311 591ft 123kts
08-Feb-18 20:14 42.360296 -70.999113 313 13ft 99kts
08-Feb-18 20:15 42.372189 -71.015099 315 13ft 32kts
08-Feb-18 20:16 42.372577 -71.017701 314 13ft 16kts
08-Feb-18 20:17 42.372976 -71.020841 314 13ft 7kts
08-Feb-18 20:18 42.374000 -71.020875 309 13ft 0kts
08-Feb-18 20:19 42.374000 -71.020875 309 13ft 0kts
08-Feb-18 20:20 42.374000 -71.020875 309 13ft 0kts
08-Feb-18 20:21 42.374000 -71.020875 309 13ft 0kts
08-Feb-18 20:22 42.374000 -71.020875 309 13ft 0kts
08-Feb-18 20:23 42.374000 -71.020875 309 13ft 0kts
08-Feb-18 20:24 42.374000 -71.020874 308 13ft 0kts
08-Feb-18 20:25 42.374001 -71.020874 308 13ft 0kts
08-Feb-18 20:26 42.374001 -71.020874 308 13ft 0kts
08-Feb-18 20:27 42.374001 -71.020874 308 13ft 0kts
08-Feb-18 20:28 42.374001 -71.020874 308 13ft 0kts
08-Feb-18 20:29 42.374001 -71.020874 308 13ft 0kts

Navigation Log

Ident Type
Flight plan parsing failed, navigation log unavailable